sensor_id;sensor_type;location;lat;lon;timestamp;P1;durP1;ratioP1;P2;durP2;ratioP2
68108;SDS011;54893;49.864;19.084;2022-12-18T00:00:40;124.53;;;37.53;;
68108;SDS011;54893;49.864;19.084;2022-12-18T00:05:47;123.38;;;30.17;;
68108;SDS011;54893;49.864;19.084;2022-12-18T00:10:49;106.53;;;25.45;;
68108;SDS011;54893;49.864;19.084;2022-12-18T00:15:49;95.17;;;20.97;;
68108;SDS011;54893;49.864;19.084;2022-12-18T00:20:49;96.70;;;23.17;;
68108;SDS011;54893;49.864;19.084;2022-12-18T00:25:49;86.60;;;21.00;;
68108;SDS011;54893;49.864;19.084;2022-12-18T00:30:50;116.53;;;28.80;;
68108;SDS011;54893;49.864;19.084;2022-12-18T00:35:51;101.53;;;25.90;;
68108;SDS011;54893;49.864;19.084;2022-12-18T00:40:51;110.73;;;25.83;;
68108;SDS011;54893;49.864;19.084;2022-12-18T00:45:52;107.10;;;25.90;;
68108;SDS011;54893;49.864;19.084;2022-12-18T00:50:52;110.13;;;26.80;;
68108;SDS011;54893;49.864;19.084;2022-12-18T00:55:52;112.33;;;25.30;;
68108;SDS011;54893;49.864;19.084;2022-12-18T01:00:53;121.53;;;28.40;;
68108;SDS011;54893;49.864;19.084;2022-12-18T01:05:53;88.05;;;19.52;;
68108;SDS011;54893;49.864;19.084;2022-12-18T01:10:53;106.70;;;26.87;;
68108;SDS011;54893;49.864;19.084;2022-12-18T01:15:54;103.30;;;23.80;;
68108;SDS011;54893;49.864;19.084;2022-12-18T01:20:54;110.77;;;25.67;;
68108;SDS011;54893;49.864;19.084;2022-12-18T01:25:54;110.57;;;25.27;;
68108;SDS011;54893;49.864;19.084;2022-12-18T01:30:55;114.75;;;25.80;;
68108;SDS011;54893;49.864;19.084;2022-12-18T01:35:55;118.45;;;28.23;;
68108;SDS011;54893;49.864;19.084;2022-12-18T01:40:59;94.47;;;21.77;;
68108;SDS011;54893;49.864;19.084;2022-12-18T01:45:59;100.23;;;24.07;;
68108;SDS011;54893;49.864;19.084;2022-12-18T01:51:00;91.60;;;21.70;;
68108;SDS011;54893;49.864;19.084;2022-12-18T01:56:01;86.45;;;19.90;;
68108;SDS011;54893;49.864;19.084;2022-12-18T02:01:01;100.27;;;22.97;;
68108;SDS011;54893;49.864;19.084;2022-12-18T02:16:48;92.90;;;22.40;;
68108;SDS011;54893;49.864;19.084;2022-12-18T02:27:18;88.90;;;19.25;;
68108;SDS011;54893;49.864;19.084;2022-12-18T02:32:24;96.53;;;22.50;;
68108;SDS011;54893;49.864;19.084;2022-12-18T02:37:27;106.37;;;24.47;;
68108;SDS011;54893;49.864;19.084;2022-12-18T02:42:28;93.90;;;21.02;;
68108;SDS011;54893;49.864;19.084;2022-12-18T02:47:31;87.70;;;20.65;;
68108;SDS011;54893;49.864;19.084;2022-12-18T03:03:33;99.37;;;22.97;;
68108;SDS011;54893;49.864;19.084;2022-12-18T03:08:41;80.95;;;19.15;;
68108;SDS011;54893;49.864;19.084;2022-12-18T03:13:47;92.83;;;23.53;;
68108;SDS011;54893;49.864;19.084;2022-12-18T03:19:04;86.13;;;19.95;;
68108;SDS011;54893;49.864;19.084;2022-12-18T03:24:09;79.68;;;17.98;;
68108;SDS011;54893;49.864;19.084;2022-12-18T03:29:16;81.97;;;19.80;;
68108;SDS011;54893;49.864;19.084;2022-12-18T03:34:25;80.95;;;19.58;;
68108;SDS011;54893;49.864;19.084;2022-12-18T03:39:29;54.33;;;12.87;;
68108;SDS011;54893;49.864;19.084;2022-12-18T03:44:37;58.57;;;12.67;;
68108;SDS011;54893;49.864;19.084;2022-12-18T03:55:07;70.45;;;17.13;;
68108;SDS011;54893;49.864;19.084;2022-12-18T04:00:10;69.23;;;16.53;;
68108;SDS011;54893;49.864;19.084;2022-12-18T04:05:13;68.05;;;16.90;;
68108;SDS011;54893;49.864;19.084;2022-12-18T04:10:14;55.80;;;13.03;;
68108;SDS011;54893;49.864;19.084;2022-12-18T04:15:16;63.40;;;15.00;;
68108;SDS011;54893;49.864;19.084;2022-12-18T04:20:16;68.10;;;14.13;;
68108;SDS011;54893;49.864;19.084;2022-12-18T04:25:17;69.40;;;15.77;;
68108;SDS011;54893;49.864;19.084;2022-12-18T04:30:17;84.77;;;20.87;;
68108;SDS011;54893;49.864;19.084;2022-12-18T04:35:17;66.23;;;14.40;;
68108;SDS011;54893;49.864;19.084;2022-12-18T04:40:18;68.33;;;13.43;;
68108;SDS011;54893;49.864;19.084;2022-12-18T04:45:18;64.90;;;13.40;;
68108;SDS011;54893;49.864;19.084;2022-12-18T04:50:18;68.53;;;15.17;;
68108;SDS011;54893;49.864;19.084;2022-12-18T04:55:19;58.13;;;12.73;;
68108;SDS011;54893;49.864;19.084;2022-12-18T05:00:19;75.13;;;16.30;;
68108;SDS011;54893;49.864;19.084;2022-12-18T05:05:20;69.70;;;13.53;;
68108;SDS011;54893;49.864;19.084;2022-12-18T05:10:20;46.53;;;11.87;;
68108;SDS011;54893;49.864;19.084;2022-12-18T05:15:21;55.67;;;13.77;;
68108;SDS011;54893;49.864;19.084;2022-12-18T05:20:21;92.53;;;20.07;;
68108;SDS011;54893;49.864;19.084;2022-12-18T05:25:22;74.97;;;17.33;;
68108;SDS011;54893;49.864;19.084;2022-12-18T05:30:22;64.90;;;15.07;;
68108;SDS011;54893;49.864;19.084;2022-12-18T05:35:23;117.37;;;31.30;;
68108;SDS011;54893;49.864;19.084;2022-12-18T05:40:23;62.17;;;13.83;;
68108;SDS011;54893;49.864;19.084;2022-12-18T05:45:23;69.87;;;15.60;;
68108;SDS011;54893;49.864;19.084;2022-12-18T05:50:24;73.35;;;16.48;;
68108;SDS011;54893;49.864;19.084;2022-12-18T05:55:24;67.70;;;15.50;;
68108;SDS011;54893;49.864;19.084;2022-12-18T06:00:26;64.97;;;14.77;;
68108;SDS011;54893;49.864;19.084;2022-12-18T06:05:26;66.50;;;14.60;;
68108;SDS011;54893;49.864;19.084;2022-12-18T06:10:26;61.77;;;14.60;;
68108;SDS011;54893;49.864;19.084;2022-12-18T06:15:27;71.00;;;16.25;;
68108;SDS011;54893;49.864;19.084;2022-12-18T06:20:27;59.00;;;12.03;;
68108;SDS011;54893;49.864;19.084;2022-12-18T06:25:30;54.67;;;12.48;;
68108;SDS011;54893;49.864;19.084;2022-12-18T06:30:31;59.07;;;12.50;;
68108;SDS011;54893;49.864;19.084;2022-12-18T06:35:31;48.13;;;12.30;;
68108;SDS011;54893;49.864;19.084;2022-12-18T06:40:32;59.80;;;14.17;;
68108;SDS011;54893;49.864;19.084;2022-12-18T06:45:32;49.23;;;11.57;;
68108;SDS011;54893;49.864;19.084;2022-12-18T06:50:32;55.33;;;12.03;;
68108;SDS011;54893;49.864;19.084;2022-12-18T06:55:33;49.63;;;11.50;;
68108;SDS011;54893;49.864;19.084;2022-12-18T07:00:33;54.50;;;13.23;;
68108;SDS011;54893;49.864;19.084;2022-12-18T07:05:34;54.07;;;12.70;;
68108;SDS011;54893;49.864;19.084;2022-12-18T07:10:40;46.27;;;11.07;;
68108;SDS011;54893;49.864;19.084;2022-12-18T07:15:42;55.25;;;12.20;;
68108;SDS011;54893;49.864;19.084;2022-12-18T07:20:43;57.43;;;13.63;;
68108;SDS011;54893;49.864;19.084;2022-12-18T07:25:44;60.13;;;13.50;;
68108;SDS011;54893;49.864;19.084;2022-12-18T07:30:44;64.03;;;14.38;;
68108;SDS011;54893;49.864;19.084;2022-12-18T07:35:44;60.97;;;14.60;;
68108;SDS011;54893;49.864;19.084;2022-12-18T07:40:45;63.73;;;14.00;;
68108;SDS011;54893;49.864;19.084;2022-12-18T07:45:45;56.37;;;14.27;;
68108;SDS011;54893;49.864;19.084;2022-12-18T07:50:48;64.18;;;13.48;;
68108;SDS011;54893;49.864;19.084;2022-12-18T07:55:49;68.80;;;15.27;;
68108;SDS011;54893;49.864;19.084;2022-12-18T08:01:02;61.33;;;13.10;;
68108;SDS011;54893;49.864;19.084;2022-12-18T08:06:05;56.73;;;13.40;;
68108;SDS011;54893;49.864;19.084;2022-12-18T08:11:07;58.20;;;13.70;;
68108;SDS011;54893;49.864;19.084;2022-12-18T08:16:07;58.60;;;13.67;;
68108;SDS011;54893;49.864;19.084;2022-12-18T08:21:15;61.13;;;15.33;;
68108;SDS011;54893;49.864;19.084;2022-12-18T08:26:18;69.70;;;15.85;;
68108;SDS011;54893;49.864;19.084;2022-12-18T08:31:19;66.33;;;16.93;;
68108;SDS011;54893;49.864;19.084;2022-12-18T08:36:19;61.07;;;15.90;;
68108;SDS011;54893;49.864;19.084;2022-12-18T08:41:21;69.18;;;15.80;;
68108;SDS011;54893;49.864;19.084;2022-12-18T08:46:21;65.63;;;15.20;;
68108;SDS011;54893;49.864;19.084;2022-12-18T08:51:23;70.47;;;17.00;;
68108;SDS011;54893;49.864;19.084;2022-12-18T08:56:24;65.43;;;17.00;;
68108;SDS011;54893;49.864;19.084;2022-12-18T09:01:24;51.50;;;13.47;;
68108;SDS011;54893;49.864;19.084;2022-12-18T09:06:24;46.43;;;12.17;;
68108;SDS011;54893;49.864;19.084;2022-12-18T09:11:26;70.55;;;16.90;;
68108;SDS011;54893;49.864;19.084;2022-12-18T09:16:28;72.70;;;18.70;;
68108;SDS011;54893;49.864;19.084;2022-12-18T09:21:32;63.08;;;15.95;;
68108;SDS011;54893;49.864;19.084;2022-12-18T09:26:34;67.43;;;17.30;;
68108;SDS011;54893;49.864;19.084;2022-12-18T09:31:35;67.93;;;18.00;;
68108;SDS011;54893;49.864;19.084;2022-12-18T09:36:36;65.33;;;17.63;;
68108;SDS011;54893;49.864;19.084;2022-12-18T09:46:55;74.15;;;20.08;;
68108;SDS011;54893;49.864;19.084;2022-12-18T09:52:00;56.65;;;15.65;;
68108;SDS011;54893;49.864;19.084;2022-12-18T09:57:04;73.38;;;19.02;;
68108;SDS011;54893;49.864;19.084;2022-12-18T10:02:38;73.43;;;19.40;;
68108;SDS011;54893;49.864;19.084;2022-12-18T10:12:42;67.10;;;17.63;;
68108;SDS011;54893;49.864;19.084;2022-12-18T10:18:01;74.18;;;19.75;;
68108;SDS011;54893;49.864;19.084;2022-12-18T10:28:22;77.00;;;19.52;;
68108;SDS011;54893;49.864;19.084;2022-12-18T10:33:24;72.10;;;19.13;;
68108;SDS011;54893;49.864;19.084;2022-12-18T10:38:29;71.53;;;19.30;;
68108;SDS011;54893;49.864;19.084;2022-12-18T10:43:35;77.05;;;20.55;;
68108;SDS011;54893;49.864;19.084;2022-12-18T10:53:50;79.22;;;24.65;;
68108;SDS011;54893;49.864;19.084;2022-12-18T10:58:57;80.47;;;22.57;;
68108;SDS011;54893;49.864;19.084;2022-12-18T11:04:01;82.97;;;23.23;;
68108;SDS011;54893;49.864;19.084;2022-12-18T11:09:20;78.43;;;20.80;;
68108;SDS011;54893;49.864;19.084;2022-12-18T11:14:21;38.92;;;12.40;;
68108;SDS011;54893;49.864;19.084;2022-12-18T11:19:33;49.35;;;12.85;;
68108;SDS011;54893;49.864;19.084;2022-12-18T11:24:34;68.47;;;18.53;;
68108;SDS011;54893;49.864;19.084;2022-12-18T11:29:36;73.70;;;19.98;;
68108;SDS011;54893;49.864;19.084;2022-12-18T11:34:38;52.25;;;14.73;;
68108;SDS011;54893;49.864;19.084;2022-12-18T11:44:46;57.30;;;17.48;;
68108;SDS011;54893;49.864;19.084;2022-12-18T11:49:50;49.20;;;15.70;;
68108;SDS011;54893;49.864;19.084;2022-12-18T11:54:52;72.15;;;24.23;;
68108;SDS011;54893;49.864;19.084;2022-12-18T12:05:14;58.33;;;16.83;;
68108;SDS011;54893;49.864;19.084;2022-12-18T12:21:18;93.03;;;24.73;;
68108;SDS011;54893;49.864;19.084;2022-12-18T12:32:22;51.47;;;15.52;;
68108;SDS011;54893;49.864;19.084;2022-12-18T12:37:46;67.05;;;18.60;;
68108;SDS011;54893;49.864;19.084;2022-12-18T12:42:54;68.63;;;18.73;;
68108;SDS011;54893;49.864;19.084;2022-12-18T12:48:16;55.40;;;14.43;;
68108;SDS011;54893;49.864;19.084;2022-12-18T12:53:26;57.97;;;16.37;;
68108;SDS011;54893;49.864;19.084;2022-12-18T12:58:36;64.97;;;17.95;;
68108;SDS011;54893;49.864;19.084;2022-12-18T13:04:08;58.13;;;15.48;;
68108;SDS011;54893;49.864;19.084;2022-12-18T13:09:32;63.03;;;15.20;;
68108;SDS011;54893;49.864;19.084;2022-12-18T13:14:34;53.58;;;15.15;;
68108;SDS011;54893;49.864;19.084;2022-12-18T13:19:36;64.30;;;18.10;;
68108;SDS011;54893;49.864;19.084;2022-12-18T13:24:36;65.97;;;16.77;;
68108;SDS011;54893;49.864;19.084;2022-12-18T13:29:41;61.10;;;16.40;;
68108;SDS011;54893;49.864;19.084;2022-12-18T13:34:43;66.85;;;18.15;;
68108;SDS011;54893;49.864;19.084;2022-12-18T13:39:44;69.73;;;20.47;;
68108;SDS011;54893;49.864;19.084;2022-12-18T13:44:44;77.60;;;21.33;;
68108;SDS011;54893;49.864;19.084;2022-12-18T13:49:44;69.23;;;18.83;;
68108;SDS011;54893;49.864;19.084;2022-12-18T13:54:53;69.30;;;20.60;;
68108;SDS011;54893;49.864;19.084;2022-12-18T13:59:55;75.23;;;20.33;;
68108;SDS011;54893;49.864;19.084;2022-12-18T14:04:56;67.22;;;17.45;;
68108;SDS011;54893;49.864;19.084;2022-12-18T14:09:57;74.00;;;19.93;;
68108;SDS011;54893;49.864;19.084;2022-12-18T14:15:00;78.10;;;22.37;;
68108;SDS011;54893;49.864;19.084;2022-12-18T14:20:01;82.40;;;23.15;;
68108;SDS011;54893;49.864;19.084;2022-12-18T14:35:33;92.60;;;24.00;;
68108;SDS011;54893;49.864;19.084;2022-12-18T14:40:37;76.30;;;21.15;;
68108;SDS011;54893;49.864;19.084;2022-12-18T14:45:41;96.50;;;25.83;;
68108;SDS011;54893;49.864;19.084;2022-12-18T14:50:43;94.43;;;26.60;;
68108;SDS011;54893;49.864;19.084;2022-12-18T14:55:45;102.18;;;28.58;;
68108;SDS011;54893;49.864;19.084;2022-12-18T15:00:47;120.40;;;36.00;;
68108;SDS011;54893;49.864;19.084;2022-12-18T15:05:47;121.43;;;33.57;;
68108;SDS011;54893;49.864;19.084;2022-12-18T15:10:48;135.73;;;37.40;;
68108;SDS011;54893;49.864;19.084;2022-12-18T15:15:48;150.30;;;48.70;;
68108;SDS011;54893;49.864;19.084;2022-12-18T15:25:57;179.65;;;58.25;;
68108;SDS011;54893;49.864;19.084;2022-12-18T15:36:00;206.40;;;64.35;;
68108;SDS011;54893;49.864;19.084;2022-12-18T15:41:02;163.43;;;52.08;;
68108;SDS011;54893;49.864;19.084;2022-12-18T15:46:04;186.17;;;57.03;;
68108;SDS011;54893;49.864;19.084;2022-12-18T15:51:09;173.73;;;53.60;;
68108;SDS011;54893;49.864;19.084;2022-12-18T15:56:14;182.50;;;58.03;;
68108;SDS011;54893;49.864;19.084;2022-12-18T16:01:34;178.48;;;56.25;;
68108;SDS011;54893;49.864;19.084;2022-12-18T16:06:34;165.40;;;56.77;;
68108;SDS011;54893;49.864;19.084;2022-12-18T16:11:35;180.83;;;60.07;;
68108;SDS011;54893;49.864;19.084;2022-12-18T16:16:37;179.88;;;59.85;;
68108;SDS011;54893;49.864;19.084;2022-12-18T16:21:38;159.00;;;54.10;;
68108;SDS011;54893;49.864;19.084;2022-12-18T16:26:38;162.20;;;51.50;;
68108;SDS011;54893;49.864;19.084;2022-12-18T16:31:39;147.17;;;51.03;;
68108;SDS011;54893;49.864;19.084;2022-12-18T16:36:39;146.20;;;49.47;;
68108;SDS011;54893;49.864;19.084;2022-12-18T16:41:40;148.57;;;47.23;;
68108;SDS011;54893;49.864;19.084;2022-12-18T16:46:40;144.33;;;48.40;;
68108;SDS011;54893;49.864;19.084;2022-12-18T16:51:45;264.05;;;94.03;;
68108;SDS011;54893;49.864;19.084;2022-12-18T16:56:46;455.30;;;154.20;;
68108;SDS011;54893;49.864;19.084;2022-12-18T17:01:48;274.05;;;90.05;;
68108;SDS011;54893;49.864;19.084;2022-12-18T17:06:49;245.43;;;82.35;;
68108;SDS011;54893;49.864;19.084;2022-12-18T17:11:51;176.13;;;61.87;;
68108;SDS011;54893;49.864;19.084;2022-12-18T17:16:53;189.43;;;70.90;;
68108;SDS011;54893;49.864;19.084;2022-12-18T17:21:54;198.13;;;66.88;;
68108;SDS011;54893;49.864;19.084;2022-12-18T17:26:54;210.40;;;68.63;;
68108;SDS011;54893;49.864;19.084;2022-12-18T17:31:55;243.97;;;82.87;;
68108;SDS011;54893;49.864;19.084;2022-12-18T17:36:55;240.20;;;74.87;;
68108;SDS011;54893;49.864;19.084;2022-12-18T17:41:56;147.93;;;51.23;;
68108;SDS011;54893;49.864;19.084;2022-12-18T17:46:56;180.07;;;57.60;;
68108;SDS011;54893;49.864;19.084;2022-12-18T17:51:56;177.00;;;59.40;;
68108;SDS011;54893;49.864;19.084;2022-12-18T17:56:57;166.70;;;54.90;;
68108;SDS011;54893;49.864;19.084;2022-12-18T18:01:57;124.03;;;40.03;;
68108;SDS011;54893;49.864;19.084;2022-12-18T18:06:57;110.10;;;37.20;;
68108;SDS011;54893;49.864;19.084;2022-12-18T18:11:58;101.17;;;36.53;;
68108;SDS011;54893;49.864;19.084;2022-12-18T18:17:17;128.23;;;38.00;;
68108;SDS011;54893;49.864;19.084;2022-12-18T18:22:17;200.93;;;52.87;;
68108;SDS011;54893;49.864;19.084;2022-12-18T18:27:19;224.43;;;56.13;;
68108;SDS011;54893;49.864;19.084;2022-12-18T18:32:19;182.03;;;49.77;;
68108;SDS011;54893;49.864;19.084;2022-12-18T18:37:19;120.50;;;37.97;;
68108;SDS011;54893;49.864;19.084;2022-12-18T18:42:19;258.30;;;90.30;;
68108;SDS011;54893;49.864;19.084;2022-12-18T18:47:20;216.70;;;69.07;;
68108;SDS011;54893;49.864;19.084;2022-12-18T18:52:20;304.40;;;90.30;;
68108;SDS011;54893;49.864;19.084;2022-12-18T18:57:20;163.85;;;50.85;;
68108;SDS011;54893;49.864;19.084;2022-12-18T19:02:21;191.40;;;56.17;;
68108;SDS011;54893;49.864;19.084;2022-12-18T19:07:21;248.03;;;77.60;;
68108;SDS011;54893;49.864;19.084;2022-12-18T19:12:21;217.73;;;66.70;;
68108;SDS011;54893;49.864;19.084;2022-12-18T19:17:40;224.30;;;68.70;;
68108;SDS011;54893;49.864;19.084;2022-12-18T19:22:41;260.23;;;78.20;;
68108;SDS011;54893;49.864;19.084;2022-12-18T19:27:41;218.00;;;67.97;;
68108;SDS011;54893;49.864;19.084;2022-12-18T19:32:41;233.77;;;68.63;;
68108;SDS011;54893;49.864;19.084;2022-12-18T19:37:42;226.97;;;73.33;;
68108;SDS011;54893;49.864;19.084;2022-12-18T19:42:42;175.17;;;56.93;;
68108;SDS011;54893;49.864;19.084;2022-12-18T19:47:42;197.57;;;67.25;;
68108;SDS011;54893;49.864;19.084;2022-12-18T19:52:43;196.40;;;69.20;;
68108;SDS011;54893;49.864;19.084;2022-12-18T19:57:43;165.85;;;54.20;;
68108;SDS011;54893;49.864;19.084;2022-12-18T20:02:44;233.90;;;73.37;;
68108;SDS011;54893;49.864;19.084;2022-12-18T20:07:44;165.97;;;57.93;;
68108;SDS011;54893;49.864;19.084;2022-12-18T20:12:44;161.70;;;53.50;;
68108;SDS011;54893;49.864;19.084;2022-12-18T20:17:45;203.17;;;70.97;;
68108;SDS011;54893;49.864;19.084;2022-12-18T20:22:45;167.17;;;57.17;;
68108;SDS011;54893;49.864;19.084;2022-12-18T20:27:45;231.73;;;74.53;;
68108;SDS011;54893;49.864;19.084;2022-12-18T20:32:46;150.83;;;52.80;;
68108;SDS011;54893;49.864;19.084;2022-12-18T20:37:46;181.27;;;54.97;;
68108;SDS011;54893;49.864;19.084;2022-12-18T20:42:47;188.00;;;62.10;;
68108;SDS011;54893;49.864;19.084;2022-12-18T20:47:48;215.40;;;68.87;;
68108;SDS011;54893;49.864;19.084;2022-12-18T20:52:48;208.50;;;65.77;;
68108;SDS011;54893;49.864;19.084;2022-12-18T20:57:49;151.10;;;49.33;;
68108;SDS011;54893;49.864;19.084;2022-12-18T21:02:51;132.27;;;43.23;;
68108;SDS011;54893;49.864;19.084;2022-12-18T21:07:51;137.00;;;42.37;;
68108;SDS011;54893;49.864;19.084;2022-12-18T21:12:52;147.90;;;43.87;;
68108;SDS011;54893;49.864;19.084;2022-12-18T21:17:52;143.10;;;45.97;;
68108;SDS011;54893;49.864;19.084;2022-12-18T21:22:53;131.00;;;41.40;;
68108;SDS011;54893;49.864;19.084;2022-12-18T21:27:53;123.90;;;37.93;;
68108;SDS011;54893;49.864;19.084;2022-12-18T21:32:54;119.97;;;39.50;;
68108;SDS011;54893;49.864;19.084;2022-12-18T21:37:55;139.23;;;49.57;;
68108;SDS011;54893;49.864;19.084;2022-12-18T21:42:55;164.17;;;51.70;;
68108;SDS011;54893;49.864;19.084;2022-12-18T21:48:14;112.03;;;40.00;;
68108;SDS011;54893;49.864;19.084;2022-12-18T21:53:14;130.90;;;40.33;;
68108;SDS011;54893;49.864;19.084;2022-12-18T21:58:14;96.73;;;35.00;;
68108;SDS011;54893;49.864;19.084;2022-12-18T22:03:15;315.97;;;93.90;;
68108;SDS011;54893;49.864;19.084;2022-12-18T22:08:17;222.45;;;73.60;;
68108;SDS011;54893;49.864;19.084;2022-12-18T22:13:17;208.77;;;66.00;;
68108;SDS011;54893;49.864;19.084;2022-12-18T22:18:17;171.30;;;57.00;;
68108;SDS011;54893;49.864;19.084;2022-12-18T22:23:20;198.52;;;68.28;;
68108;SDS011;54893;49.864;19.084;2022-12-18T22:28:20;193.93;;;71.27;;
68108;SDS011;54893;49.864;19.084;2022-12-18T22:33:39;198.63;;;67.22;;
68108;SDS011;54893;49.864;19.084;2022-12-18T22:38:39;177.20;;;64.55;;
68108;SDS011;54893;49.864;19.084;2022-12-18T22:43:40;180.43;;;61.15;;
68108;SDS011;54893;49.864;19.084;2022-12-18T22:48:40;136.90;;;45.90;;
68108;SDS011;54893;49.864;19.084;2022-12-18T22:53:41;142.00;;;49.17;;
68108;SDS011;54893;49.864;19.084;2022-12-18T22:58:42;125.82;;;41.30;;
68108;SDS011;54893;49.864;19.084;2022-12-18T23:03:43;129.07;;;45.93;;
68108;SDS011;54893;49.864;19.084;2022-12-18T23:08:43;136.03;;;40.30;;
68108;SDS011;54893;49.864;19.084;2022-12-18T23:13:44;120.30;;;42.37;;
68108;SDS011;54893;49.864;19.084;2022-12-18T23:18:44;120.15;;;38.35;;
68108;SDS011;54893;49.864;19.084;2022-12-18T23:23:45;129.87;;;46.07;;
68108;SDS011;54893;49.864;19.084;2022-12-18T23:28:46;128.40;;;40.27;;
68108;SDS011;54893;49.864;19.084;2022-12-18T23:33:46;110.27;;;37.17;;
68108;SDS011;54893;49.864;19.084;2022-12-18T23:38:48;115.47;;;38.75;;
68108;SDS011;54893;49.864;19.084;2022-12-18T23:43:52;135.20;;;42.03;;
68108;SDS011;54893;49.864;19.084;2022-12-18T23:48:53;121.85;;;40.38;;
68108;SDS011;54893;49.864;19.084;2022-12-18T23:53:55;130.87;;;45.77;;
68108;SDS011;54893;49.864;19.084;2022-12-18T23:58:57;151.55;;;50.47;;
